sensor_id;sensor_type;location;lat;lon;timestamp;pressure;altitude;pressure_sealevel;temperature;humidity
65718;BME280;52445;52.466;-1.016;2022-11-20T00:01:20;99639.72;;;6.74;78.10
65718;BME280;52445;52.466;-1.016;2022-11-20T00:03:47;99635.38;;;6.66;77.65
65718;BME280;52445;52.466;-1.016;2022-11-20T00:06:16;99635.41;;;6.69;77.02
65718;BME280;52445;52.466;-1.016;2022-11-20T00:08:43;99637.13;;;6.71;77.09
65718;BME280;52445;52.466;-1.016;2022-11-20T00:11:13;99624.25;;;6.67;78.15
65718;BME280;52445;52.466;-1.016;2022-11-20T00:13:43;99628.56;;;6.68;78.10
65718;BME280;52445;52.466;-1.016;2022-11-20T00:16:11;99630.25;;;6.69;78.25
65718;BME280;52445;52.466;-1.016;2022-11-20T00:18:38;99625.09;;;6.66;76.91
65718;BME280;52445;52.466;-1.016;2022-11-20T00:21:09;99616.53;;;6.67;76.85
65718;BME280;52445;52.466;-1.016;2022-11-20T00:23:36;99616.53;;;6.67;76.55
65718;BME280;52445;52.466;-1.016;2022-11-20T00:26:04;99611.38;;;6.64;76.56
65718;BME280;52445;52.466;-1.016;2022-11-20T00:28:32;99602.75;;;6.62;77.85
65718;BME280;52445;52.466;-1.016;2022-11-20T00:31:09;99594.16;;;6.57;76.71
65718;BME280;52445;52.466;-1.016;2022-11-20T00:33:35;99590.72;;;6.58;77.45
65718;BME280;52445;52.466;-1.016;2022-11-20T00:36:06;99589.88;;;6.56;76.79
65718;BME280;52445;52.466;-1.016;2022-11-20T00:38:34;99589.03;;;6.57;76.90
65718;BME280;52445;52.466;-1.016;2022-11-20T00:41:03;99580.41;;;6.55;76.32
65718;BME280;52445;52.466;-1.016;2022-11-20T00:43:30;99576.16;;;6.57;77.44
65718;BME280;52445;52.466;-1.016;2022-11-20T00:45:59;99570.16;;;6.58;76.17
65718;BME280;52445;52.466;-1.016;2022-11-20T00:48:26;99571.88;;;6.56;77.33
65718;BME280;52445;52.466;-1.016;2022-11-20T00:50:53;99570.13;;;6.55;76.62
65718;BME280;52445;52.466;-1.016;2022-11-20T00:53:20;99577.00;;;6.56;77.67
65718;BME280;52445;52.466;-1.016;2022-11-20T00:56:04;99570.13;;;6.55;78.04
65718;BME280;52445;52.466;-1.016;2022-11-20T00:58:35;99572.72;;;6.58;77.66
65718;BME280;52445;52.466;-1.016;2022-11-20T01:01:09;99566.75;;;6.59;77.61
65718;BME280;52445;52.466;-1.016;2022-11-20T01:03:39;99559.03;;;6.59;76.61
65718;BME280;52445;52.466;-1.016;2022-11-20T01:08:48;99556.44;;;6.59;77.84
65718;BME280;52445;52.466;-1.016;2022-11-20T01:11:20;99550.41;;;6.55;77.82
65718;BME280;52445;52.466;-1.016;2022-11-20T01:13:48;99549.56;;;6.58;77.55
65718;BME280;52445;52.466;-1.016;2022-11-20T01:16:19;99550.44;;;6.59;76.53
65718;BME280;52445;52.466;-1.016;2022-11-20T01:18:48;99537.53;;;6.54;77.61
65718;BME280;52445;52.466;-1.016;2022-11-20T01:23:55;99534.06;;;6.46;77.10
65718;BME280;52445;52.466;-1.016;2022-11-20T01:26:24;99524.69;;;6.55;76.40
65718;BME280;52445;52.466;-1.016;2022-11-20T01:28:53;99513.50;;;6.55;77.64
65718;BME280;52445;52.466;-1.016;2022-11-20T01:31:22;99518.66;;;6.55;77.58
65718;BME280;52445;52.466;-1.016;2022-11-20T01:33:51;99516.09;;;6.52;76.99
65718;BME280;52445;52.466;-1.016;2022-11-20T01:36:20;99509.25;;;6.55;77.03
65718;BME280;52445;52.466;-1.016;2022-11-20T01:38:47;99512.66;;;6.51;76.91
65718;BME280;52445;52.466;-1.016;2022-11-20T01:41:15;99505.81;;;6.56;76.94
65718;BME280;52445;52.466;-1.016;2022-11-20T01:44:03;99505.81;;;6.56;77.18
65718;BME280;52445;52.466;-1.016;2022-11-20T01:46:32;99497.28;;;6.59;76.28
65718;BME280;52445;52.466;-1.016;2022-11-20T01:49:09;99490.34;;;6.55;77.39
65718;BME280;52445;52.466;-1.016;2022-11-20T01:51:57;99494.66;;;6.53;76.16
65718;BME280;52445;52.466;-1.016;2022-11-20T01:54:36;99498.09;;;6.52;75.77
65718;BME280;52445;52.466;-1.016;2022-11-20T01:57:07;99489.53;;;6.56;75.84
65718;BME280;52445;52.466;-1.016;2022-11-20T01:59:38;99492.06;;;6.53;76.09
65718;BME280;52445;52.466;-1.016;2022-11-20T02:02:07;99488.66;;;6.55;76.17
65718;BME280;52445;52.466;-1.016;2022-11-20T02:04:34;99482.63;;;6.49;76.12
65718;BME280;52445;52.466;-1.016;2022-11-20T02:07:03;99486.91;;;6.48;77.32
65718;BME280;52445;52.466;-1.016;2022-11-20T02:09:31;99481.75;;;6.48;75.95
65718;BME280;52445;52.466;-1.016;2022-11-20T02:11:58;99478.31;;;6.49;76.63
65718;BME280;52445;52.466;-1.016;2022-11-20T02:14:26;99476.59;;;6.45;76.52
65718;BME280;52445;52.466;-1.016;2022-11-20T02:16:54;99474.00;;;6.43;77.45
65718;BME280;52445;52.466;-1.016;2022-11-20T02:19:26;99462.00;;;6.36;77.48
65718;BME280;52445;52.466;-1.016;2022-11-20T02:24:30;99461.94;;;6.27;78.95
65718;BME280;52445;52.466;-1.016;2022-11-20T02:27:03;99450.75;;;6.22;78.78
65718;BME280;52445;52.466;-1.016;2022-11-20T02:34:57;99446.47;;;6.21;78.57
65718;BME280;52445;52.466;-1.016;2022-11-20T02:37:30;99446.47;;;6.21;80.01
65718;BME280;52445;52.466;-1.016;2022-11-20T02:39:58;99432.75;;;6.19;80.04
65718;BME280;52445;52.466;-1.016;2022-11-20T02:42:25;99432.69;;;6.12;80.43
65718;BME280;52445;52.466;-1.016;2022-11-20T02:44:51;99419.84;;;6.12;81.06
65718;BME280;52445;52.466;-1.016;2022-11-20T02:47:18;99417.25;;;6.12;79.48
65718;BME280;52445;52.466;-1.016;2022-11-20T02:49:45;99407.00;;;6.17;79.60
65718;BME280;52445;52.466;-1.016;2022-11-20T02:52:11;99402.75;;;6.17;79.27
65718;BME280;52445;52.466;-1.016;2022-11-20T02:54:38;99401.84;;;6.09;81.16
65718;BME280;52445;52.466;-1.016;2022-11-20T02:57:04;99395.03;;;6.17;79.69
65718;BME280;52445;52.466;-1.016;2022-11-20T02:59:31;99389.88;;;6.17;80.04
65718;BME280;52445;52.466;-1.016;2022-11-20T03:01:57;99379.59;;;6.17;80.30
65718;BME280;52445;52.466;-1.016;2022-11-20T03:04:24;99377.88;;;6.15;80.82
65718;BME280;52445;52.466;-1.016;2022-11-20T03:06:51;99371.00;;;6.09;80.65
65718;BME280;52445;52.466;-1.016;2022-11-20T03:09:17;99381.28;;;6.15;80.00
65718;BME280;52445;52.466;-1.016;2022-11-20T03:11:44;99371.84;;;6.10;79.52
65718;BME280;52445;52.466;-1.016;2022-11-20T03:14:11;99367.59;;;6.13;80.66
65718;BME280;52445;52.466;-1.016;2022-11-20T03:16:37;99365.84;;;6.09;81.15
65718;BME280;52445;52.466;-1.016;2022-11-20T03:19:04;99363.28;;;6.08;79.96
65718;BME280;52445;52.466;-1.016;2022-11-20T03:21:33;99357.28;;;6.10;81.19
65718;BME280;52445;52.466;-1.016;2022-11-20T03:24:00;99353.00;;;6.11;80.35
65718;BME280;52445;52.466;-1.016;2022-11-20T03:26:27;99352.16;;;6.13;81.23
65718;BME280;52445;52.466;-1.016;2022-11-20T03:28:56;99337.59;;;6.11;80.24
65718;BME280;52445;52.466;-1.016;2022-11-20T03:31:25;99337.56;;;6.06;79.85
65718;BME280;52445;52.466;-1.016;2022-11-20T03:33:52;99324.63;;;6.00;81.11
65718;BME280;52445;52.466;-1.016;2022-11-20T03:36:20;99327.19;;;6.00;80.40
65718;BME280;52445;52.466;-1.016;2022-11-20T03:38:47;99316.97;;;6.04;80.08
65718;BME280;52445;52.466;-1.016;2022-11-20T03:41:19;99317.00;;;6.08;81.36
65718;BME280;52445;52.466;-1.016;2022-11-20T03:43:56;99307.50;;;6.02;81.77
65718;BME280;52445;52.466;-1.016;2022-11-20T03:46:24;99304.91;;;5.97;82.33
65718;BME280;52445;52.466;-1.016;2022-11-20T03:48:51;99297.22;;;6.02;81.80
65718;BME280;52445;52.466;-1.016;2022-11-20T03:51:22;99292.06;;;5.99;81.47
65718;BME280;52445;52.466;-1.016;2022-11-20T03:53:49;99285.16;;;5.88;82.95
65718;BME280;52445;52.466;-1.016;2022-11-20T03:56:17;99285.19;;;5.95;81.65
65718;BME280;52445;52.466;-1.016;2022-11-20T03:58:44;99269.75;;;5.91;82.06
65718;BME280;52445;52.466;-1.016;2022-11-20T04:01:13;99272.31;;;5.90;82.33
65718;BME280;52445;52.466;-1.016;2022-11-20T04:03:41;99261.19;;;5.92;83.04
65718;BME280;52445;52.466;-1.016;2022-11-20T04:06:10;99259.47;;;5.88;83.84
65718;BME280;52445;52.466;-1.016;2022-11-20T04:08:38;99255.19;;;5.90;83.34
65718;BME280;52445;52.466;-1.016;2022-11-20T04:13:47;99243.19;;;5.92;83.77
65718;BME280;52445;52.466;-1.016;2022-11-20T04:16:15;99241.47;;;5.90;83.18
65718;BME280;52445;52.466;-1.016;2022-11-20T04:18:43;99244.03;;;5.88;83.44
65718;BME280;52445;52.466;-1.016;2022-11-20T04:21:10;99236.34;;;5.93;82.58
65718;BME280;52445;52.466;-1.016;2022-11-20T04:23:37;99236.38;;;5.95;83.35
65718;BME280;52445;52.466;-1.016;2022-11-20T04:28:39;99230.38;;;6.02;83.56
65718;BME280;52445;52.466;-1.016;2022-11-20T04:31:09;99220.97;;;5.99;84.43
65718;BME280;52445;52.466;-1.016;2022-11-20T04:33:37;99225.28;;;6.05;83.73
65718;BME280;52445;52.466;-1.016;2022-11-20T04:36:09;99207.25;;;6.00;82.82
65718;BME280;52445;52.466;-1.016;2022-11-20T04:38:37;99204.66;;;5.96;84.19
65718;BME280;52445;52.466;-1.016;2022-11-20T04:41:06;99203.88;;;6.06;84.47
65718;BME280;52445;52.466;-1.016;2022-11-20T04:43:33;99206.44;;;6.06;83.37
65718;BME280;52445;52.466;-1.016;2022-11-20T04:46:00;99209.00;;;6.08;84.52
65718;BME280;52445;52.466;-1.016;2022-11-20T04:48:28;99199.53;;;6.02;84.98
65718;BME280;52445;52.466;-1.016;2022-11-20T04:50:55;99199.56;;;6.08;83.52
65718;BME280;52445;52.466;-1.016;2022-11-20T04:53:23;99209.84;;;6.08;84.34
65718;BME280;52445;52.466;-1.016;2022-11-20T04:55:50;99204.75;;;6.21;83.22
65718;BME280;52445;52.466;-1.016;2022-11-20T04:58:16;99199.63;;;6.22;82.81
65718;BME280;52445;52.466;-1.016;2022-11-20T05:00:43;99197.88;;;6.23;84.21
65718;BME280;52445;52.466;-1.016;2022-11-20T05:03:10;99199.59;;;6.27;83.98
65718;BME280;52445;52.466;-1.016;2022-11-20T05:05:36;99179.88;;;6.26;83.12
65718;BME280;52445;52.466;-1.016;2022-11-20T05:08:03;99184.19;;;6.33;84.16
65718;BME280;52445;52.466;-1.016;2022-11-20T05:10:30;99180.75;;;6.31;84.09
65718;BME280;52445;52.466;-1.016;2022-11-20T05:12:57;99186.75;;;6.33;84.36
65718;BME280;52445;52.466;-1.016;2022-11-20T05:15:23;99185.91;;;6.37;84.12
65718;BME280;52445;52.466;-1.016;2022-11-20T05:17:51;99187.63;;;6.41;82.87
65718;BME280;52445;52.466;-1.016;2022-11-20T05:20:18;99182.47;;;6.41;82.56
65718;BME280;52445;52.466;-1.016;2022-11-20T05:22:45;99180.75;;;6.47;83.96
65718;BME280;52445;52.466;-1.016;2022-11-20T05:25:12;99179.03;;;6.49;82.38
65718;BME280;52445;52.466;-1.016;2022-11-20T05:27:39;99179.03;;;6.55;83.45
65718;BME280;52445;52.466;-1.016;2022-11-20T05:30:06;99163.59;;;6.55;82.32
65718;BME280;52445;52.466;-1.016;2022-11-20T05:32:33;99171.31;;;6.60;82.29
65718;BME280;52445;52.466;-1.016;2022-11-20T05:34:59;99165.31;;;6.56;83.74
65718;BME280;52445;52.466;-1.016;2022-11-20T05:37:26;99168.75;;;6.58;83.04
65718;BME280;52445;52.466;-1.016;2022-11-20T05:39:53;99165.34;;;6.59;82.98
65718;BME280;52445;52.466;-1.016;2022-11-20T05:42:19;99168.75;;;6.61;84.06
65718;BME280;52445;52.466;-1.016;2022-11-20T05:45:03;99163.59;;;6.67;83.00
65718;BME280;52445;52.466;-1.016;2022-11-20T05:47:32;99164.44;;;6.69;83.49
65718;BME280;52445;52.466;-1.016;2022-11-20T05:49:59;99161.88;;;6.71;83.65
65718;BME280;52445;52.466;-1.016;2022-11-20T05:52:30;99159.31;;;6.77;83.03
65718;BME280;52445;52.466;-1.016;2022-11-20T05:54:57;99159.28;;;6.80;83.56
65718;BME280;52445;52.466;-1.016;2022-11-20T05:57:23;99160.16;;;6.84;82.97
65718;BME280;52445;52.466;-1.016;2022-11-20T05:59:50;99158.41;;;6.89;83.35
65718;BME280;52445;52.466;-1.016;2022-11-20T06:02:16;99152.41;;;6.89;83.05
65718;BME280;52445;52.466;-1.016;2022-11-20T06:04:43;99156.69;;;6.93;83.17
65718;BME280;52445;52.466;-1.016;2022-11-20T06:07:10;99144.66;;;6.97;83.30
65718;BME280;52445;52.466;-1.016;2022-11-20T06:09:36;99149.81;;;7.03;82.86
65718;BME280;52445;52.466;-1.016;2022-11-20T06:12:03;99141.22;;;7.07;83.44
65718;BME280;52445;52.466;-1.016;2022-11-20T06:14:30;99149.78;;;7.12;83.27
65718;BME280;52445;52.466;-1.016;2022-11-20T06:16:57;99142.91;;;7.14;82.29
65718;BME280;52445;52.466;-1.016;2022-11-20T06:19:23;99148.03;;;7.20;82.33
65718;BME280;52445;52.466;-1.016;2022-11-20T06:21:50;99140.28;;;7.22;83.36
65718;BME280;52445;52.466;-1.016;2022-11-20T06:24:17;99137.72;;;7.24;81.93
65718;BME280;52445;52.466;-1.016;2022-11-20T06:26:44;99138.56;;;7.27;82.05
65718;BME280;52445;52.466;-1.016;2022-11-20T06:29:10;99131.69;;;7.29;83.06
65718;BME280;52445;52.466;-1.016;2022-11-20T06:31:37;99144.56;;;7.31;82.56
65718;BME280;52445;52.466;-1.016;2022-11-20T06:34:04;99131.69;;;7.31;82.21
65718;BME280;52445;52.466;-1.016;2022-11-20T06:36:33;99123.09;;;7.32;83.02
65718;BME280;52445;52.466;-1.016;2022-11-20T06:39:00;99125.66;;;7.33;83.18
65718;BME280;52445;52.466;-1.016;2022-11-20T06:41:27;99129.09;;;7.34;83.26
65718;BME280;52445;52.466;-1.016;2022-11-20T06:43:54;99124.78;;;7.36;83.22
65718;BME280;52445;52.466;-1.016;2022-11-20T06:46:21;99117.06;;;7.36;82.13
65718;BME280;52445;52.466;-1.016;2022-11-20T06:48:48;99130.78;;;7.37;81.94
65718;BME280;52445;52.466;-1.016;2022-11-20T06:51:15;99123.94;;;7.34;83.01
65718;BME280;52445;52.466;-1.016;2022-11-20T06:53:42;99129.97;;;7.31;81.85
65718;BME280;52445;52.466;-1.016;2022-11-20T06:56:09;99137.69;;;7.30;82.29
65718;BME280;52445;52.466;-1.016;2022-11-20T06:58:36;99145.44;;;7.31;81.93
65718;BME280;52445;52.466;-1.016;2022-11-20T07:01:07;99137.69;;;7.28;82.76
65718;BME280;52445;52.466;-1.016;2022-11-20T07:03:34;99140.28;;;7.25;82.98
65718;BME280;52445;52.466;-1.016;2022-11-20T07:06:01;99141.16;;;7.26;82.40
65718;BME280;52445;52.466;-1.016;2022-11-20T07:08:28;99149.72;;;7.26;83.28
65718;BME280;52445;52.466;-1.016;2022-11-20T07:10:58;99148.88;;;7.27;83.05
65718;BME280;52445;52.466;-1.016;2022-11-20T07:13:27;99156.59;;;7.26;82.51
65718;BME280;52445;52.466;-1.016;2022-11-20T07:15:54;99154.91;;;7.22;82.98
65718;BME280;52445;52.466;-1.016;2022-11-20T07:18:21;99154.91;;;7.18;81.86
65718;BME280;52445;52.466;-1.016;2022-11-20T07:20:47;99160.06;;;7.15;81.63
65718;BME280;52445;52.466;-1.016;2022-11-20T07:23:14;99156.63;;;7.13;81.82
65718;BME280;52445;52.466;-1.016;2022-11-20T07:25:40;99161.81;;;7.10;82.86
65718;BME280;52445;52.466;-1.016;2022-11-20T07:28:07;99164.38;;;7.10;81.84
65718;BME280;52445;52.466;-1.016;2022-11-20T07:30:34;99162.66;;;7.09;82.61
65718;BME280;52445;52.466;-1.016;2022-11-20T07:33:00;99162.66;;;7.07;82.32
65718;BME280;52445;52.466;-1.016;2022-11-20T07:35:27;99165.25;;;7.06;82.77
65718;BME280;52445;52.466;-1.016;2022-11-20T07:37:53;99167.84;;;7.06;81.67
65718;BME280;52445;52.466;-1.016;2022-11-20T07:40:20;99170.41;;;7.04;81.61
65718;BME280;52445;52.466;-1.016;2022-11-20T07:45:24;99174.69;;;7.04;82.02
65718;BME280;52445;52.466;-1.016;2022-11-20T07:47:51;99172.13;;;7.04;82.08
65718;BME280;52445;52.466;-1.016;2022-11-20T07:50:18;99174.69;;;7.04;82.37
65718;BME280;52445;52.466;-1.016;2022-11-20T07:52:45;99176.41;;;7.05;81.69
65718;BME280;52445;52.466;-1.016;2022-11-20T07:55:12;99189.28;;;7.06;81.82
65718;BME280;52445;52.466;-1.016;2022-11-20T07:57:39;99184.13;;;7.06;82.61
65718;BME280;52445;52.466;-1.016;2022-11-20T08:00:08;99190.97;;;7.09;81.95
65718;BME280;52445;52.466;-1.016;2022-11-20T08:02:37;99196.13;;;7.12;82.10
65718;BME280;52445;52.466;-1.016;2022-11-20T08:05:06;99194.41;;;7.13;81.24
65718;BME280;52445;52.466;-1.016;2022-11-20T08:07:42;99199.53;;;7.17;82.22
65718;BME280;52445;52.466;-1.016;2022-11-20T08:10:11;99209.84;;;7.24;81.45
65718;BME280;52445;52.466;-1.016;2022-11-20T08:12:45;99209.81;;;7.30;82.11
65718;BME280;52445;52.466;-1.016;2022-11-20T08:15:32;99209.75;;;7.50;82.63
65718;BME280;52445;52.466;-1.016;2022-11-20T08:18:02;99214.81;;;7.74;81.96
65718;BME280;52445;52.466;-1.016;2022-11-20T08:20:49;99212.09;;;7.97;81.86
65718;BME280;52445;52.466;-1.016;2022-11-20T08:23:16;99219.72;;;8.17;81.83
65718;BME280;52445;52.466;-1.016;2022-11-20T08:25:43;99221.38;;;8.31;81.37
65718;BME280;52445;52.466;-1.016;2022-11-20T08:28:09;99219.53;;;8.45;80.63
65718;BME280;52445;52.466;-1.016;2022-11-20T08:30:46;99224.59;;;8.64;81.24
65718;BME280;52445;52.466;-1.016;2022-11-20T08:33:13;99211.56;;;8.78;80.96
65718;BME280;52445;52.466;-1.016;2022-11-20T08:35:39;99211.53;;;8.83;80.75
65718;BME280;52445;52.466;-1.016;2022-11-20T08:38:08;99217.56;;;8.82;80.26
65718;BME280;52445;52.466;-1.016;2022-11-20T08:40:35;99211.56;;;8.78;79.92
65718;BME280;52445;52.466;-1.016;2022-11-20T08:43:02;99215.94;;;8.71;80.33
65718;BME280;52445;52.466;-1.016;2022-11-20T08:45:28;99215.97;;;8.65;79.99
65718;BME280;52445;52.466;-1.016;2022-11-20T08:48:00;99209.19;;;8.58;79.48
65718;BME280;52445;52.466;-1.016;2022-11-20T08:50:28;99205.72;;;8.51;79.71
65718;BME280;52445;52.466;-1.016;2022-11-20T08:52:54;99204.91;;;8.49;80.51
65718;BME280;52445;52.466;-1.016;2022-11-20T08:55:21;99206.59;;;8.52;79.59
65718;BME280;52445;52.466;-1.016;2022-11-20T08:57:48;99213.47;;;8.56;79.79
65718;BME280;52445;52.466;-1.016;2022-11-20T09:00:16;99219.41;;;8.70;80.51
65718;BME280;52445;52.466;-1.016;2022-11-20T09:02:43;99216.66;;;8.87;80.09
65718;BME280;52445;52.466;-1.016;2022-11-20T09:05:10;99224.28;;;9.02;79.98
65718;BME280;52445;52.466;-1.016;2022-11-20T09:07:36;99225.81;;;9.21;79.79
65718;BME280;52445;52.466;-1.016;2022-11-20T09:10:03;99221.84;;;9.66;80.21
65718;BME280;52445;52.466;-1.016;2022-11-20T09:12:51;99219.50;;;10.15;79.82
65718;BME280;52445;52.466;-1.016;2022-11-20T09:15:18;99219.47;;;10.18;78.10
65718;BME280;52445;52.466;-1.016;2022-11-20T09:17:53;99222.22;;;10.06;77.81
65718;BME280;52445;52.466;-1.016;2022-11-20T09:20:21;99232.78;;;9.90;78.12
65718;BME280;52445;52.466;-1.016;2022-11-20T09:22:48;99230.31;;;9.77;77.91
65718;BME280;52445;52.466;-1.016;2022-11-20T09:25:15;99227.84;;;9.70;77.68
65718;BME280;52445;52.466;-1.016;2022-11-20T09:27:42;99216.75;;;9.63;77.98
65718;BME280;52445;52.466;-1.016;2022-11-20T09:30:11;99216.75;;;9.63;78.39
65718;BME280;52445;52.466;-1.016;2022-11-20T09:32:39;99219.34;;;10.24;78.86
65718;BME280;52445;52.466;-1.016;2022-11-20T09:35:06;99218.84;;;11.12;79.36
65718;BME280;52445;52.466;-1.016;2022-11-20T09:37:33;99222.97;;;12.10;77.88
65718;BME280;52445;52.466;-1.016;2022-11-20T09:39:59;99218.13;;;13.03;76.39
65718;BME280;52445;52.466;-1.016;2022-11-20T09:50:43;99211.56;;;15.93;70.07
65718;BME280;52445;52.466;-1.016;2022-11-20T09:55:52;99205.34;;;16.42;69.20
65718;BME280;52445;52.466;-1.016;2022-11-20T09:58:31;99202.50;;;16.49;66.63
65718;BME280;52445;52.466;-1.016;2022-11-20T10:01:21;99204.81;;;16.12;65.97
65718;BME280;52445;52.466;-1.016;2022-11-20T10:04:17;99209.88;;;15.68;65.45
65718;BME280;52445;52.466;-1.016;2022-11-20T10:06:50;99217.31;;;15.32;65.76
65718;BME280;52445;52.466;-1.016;2022-11-20T10:09:45;99213.44;;;14.93;65.96
65718;BME280;52445;52.466;-1.016;2022-11-20T10:12:35;99212.63;;;14.63;66.68
65718;BME280;52445;52.466;-1.016;2022-11-20T10:15:26;99213.44;;;14.38;65.67
65718;BME280;52445;52.466;-1.016;2022-11-20T10:31:38;99211.94;;;13.41;67.15
65718;BME280;52445;52.466;-1.016;2022-11-20T10:37:01;99215.03;;;12.89;66.72
65718;BME280;52445;52.466;-1.016;2022-11-20T10:42:14;99218.63;;;12.48;68.39
65718;BME280;52445;52.466;-1.016;2022-11-20T10:44:49;99226.03;;;12.27;68.07
65718;BME280;52445;52.466;-1.016;2022-11-20T10:47:32;99227.38;;;12.04;69.18
65718;BME280;52445;52.466;-1.016;2022-11-20T10:50:04;99225.13;;;11.89;68.48
65718;BME280;52445;52.466;-1.016;2022-11-20T11:00:50;99215.25;;;11.64;70.79
65718;BME280;52445;52.466;-1.016;2022-11-20T11:03:23;99220.38;;;11.67;70.82
65718;BME280;52445;52.466;-1.016;2022-11-20T11:05:59;99209.88;;;11.73;69.97
65718;BME280;52445;52.466;-1.016;2022-11-20T11:08:34;99212.94;;;11.91;69.88
65718;BME280;52445;52.466;-1.016;2022-11-20T11:11:36;99205.09;;;11.94;69.33
65718;BME280;52445;52.466;-1.016;2022-11-20T11:14:09;99204.31;;;11.92;70.30
65718;BME280;52445;52.466;-1.016;2022-11-20T11:16:49;99207.00;;;11.86;69.74
65718;BME280;52445;52.466;-1.016;2022-11-20T11:19:17;99213.09;;;11.85;69.95
65718;BME280;52445;52.466;-1.016;2022-11-20T11:21:47;99213.22;;;11.78;69.49
65718;BME280;52445;52.466;-1.016;2022-11-20T11:27:00;99227.88;;;11.79;70.91
65718;BME280;52445;52.466;-1.016;2022-11-20T11:29:31;99233.97;;;11.78;71.02
65718;BME280;52445;52.466;-1.016;2022-11-20T11:34:41;99235.63;;;11.82;70.44
65718;BME280;52445;52.466;-1.016;2022-11-20T11:37:17;99237.41;;;11.80;70.08
65718;BME280;52445;52.466;-1.016;2022-11-20T11:39:46;99230.44;;;11.82;69.68
65718;BME280;52445;52.466;-1.016;2022-11-20T11:42:29;99238.19;;;11.84;69.70
65718;BME280;52445;52.466;-1.016;2022-11-20T11:44:59;99237.47;;;11.77;68.92
65718;BME280;52445;52.466;-1.016;2022-11-20T12:07:01;99207.56;;;11.59;69.09
65718;BME280;52445;52.466;-1.016;2022-11-20T12:09:53;99205.06;;;11.54;69.29
65718;BME280;52445;52.466;-1.016;2022-11-20T12:12:42;99207.81;;;11.45;69.65
65718;BME280;52445;52.466;-1.016;2022-11-20T12:15:11;99205.31;;;11.42;69.44
65718;BME280;52445;52.466;-1.016;2022-11-20T12:17:39;99201.94;;;11.37;68.93
65718;BME280;52445;52.466;-1.016;2022-11-20T12:20:12;99209.84;;;11.32;69.81
65718;BME280;52445;52.466;-1.016;2022-11-20T12:22:54;99213.41;;;11.26;69.04
65718;BME280;52445;52.466;-1.016;2022-11-20T12:25:27;99202.25;;;11.21;69.49
65718;BME280;52445;52.466;-1.016;2022-11-20T12:30:55;99198.09;;;11.12;69.67
65718;BME280;52445;52.466;-1.016;2022-11-20T12:36:38;99209.44;;;11.07;69.34
65718;BME280;52445;52.466;-1.016;2022-11-20T12:42:05;99207.88;;;10.96;69.24
65718;BME280;52445;52.466;-1.016;2022-11-20T13:07:50;99224.91;;;11.10;69.03
65718;BME280;52445;52.466;-1.016;2022-11-20T13:10:29;99222.31;;;11.10;69.65
65718;BME280;52445;52.466;-1.016;2022-11-20T13:13:03;99230.03;;;11.13;68.82
65718;BME280;52445;52.466;-1.016;2022-11-20T13:15:58;99217.16;;;11.08;69.86
65718;BME280;52445;52.466;-1.016;2022-11-20T13:18:29;99209.31;;;11.13;69.96
65718;BME280;52445;52.466;-1.016;2022-11-20T13:21:01;99211.00;;;11.14;69.99
65718;BME280;52445;52.466;-1.016;2022-11-20T13:23:28;99207.59;;;11.13;69.42
65718;BME280;52445;52.466;-1.016;2022-11-20T13:26:04;99208.56;;;11.08;69.41
65718;BME280;52445;52.466;-1.016;2022-11-20T13:28:32;99219.84;;;11.03;69.57
65718;BME280;52445;52.466;-1.016;2022-11-20T13:30:59;99212.16;;;10.99;69.17
65718;BME280;52445;52.466;-1.016;2022-11-20T13:33:35;99217.41;;;10.94;69.84
65718;BME280;52445;52.466;-1.016;2022-11-20T13:36:05;99215.72;;;10.91;70.02
65718;BME280;52445;52.466;-1.016;2022-11-20T13:38:43;99225.34;;;10.85;69.13
65718;BME280;52445;52.466;-1.016;2022-11-20T13:41:11;99231.44;;;10.84;70.39
65718;BME280;52445;52.466;-1.016;2022-11-20T13:46:45;99220.56;;;11.12;67.38
65718;BME280;52445;52.466;-1.016;2022-11-20T13:49:34;99213.28;;;10.84;68.77
65718;BME280;52445;52.466;-1.016;2022-11-20T13:52:50;99208.19;;;10.77;69.15
65718;BME280;52445;52.466;-1.016;2022-11-20T13:58:24;99199.53;;;10.78;69.60
65718;BME280;52445;52.466;-1.016;2022-11-20T14:00:58;99192.66;;;10.77;69.06
65718;BME280;52445;52.466;-1.016;2022-11-20T14:03:30;99184.91;;;10.77;69.57
65718;BME280;52445;52.466;-1.016;2022-11-20T14:08:55;99189.25;;;10.75;69.19
65718;BME280;52445;52.466;-1.016;2022-11-20T14:11:25;99187.53;;;10.74;70.37
65718;BME280;52445;52.466;-1.016;2022-11-20T14:13:55;99191.91;;;10.72;69.09
65718;BME280;52445;52.466;-1.016;2022-11-20T14:16:23;99188.47;;;10.70;69.94
65718;BME280;52445;52.466;-1.016;2022-11-20T14:18:51;99189.41;;;10.66;69.74
65718;BME280;52445;52.466;-1.016;2022-11-20T14:21:27;99181.75;;;10.60;69.45
65718;BME280;52445;52.466;-1.016;2022-11-20T14:24:11;99188.72;;;10.54;69.39
65718;BME280;52445;52.466;-1.016;2022-11-20T14:26:43;99180.13;;;10.54;69.61
65718;BME280;52445;52.466;-1.016;2022-11-20T14:29:14;99182.72;;;10.52;70.05
65718;BME280;52445;52.466;-1.016;2022-11-20T14:31:44;99187.03;;;10.52;70.34
65718;BME280;52445;52.466;-1.016;2022-11-20T14:34:23;99191.44;;;10.48;70.23
65718;BME280;52445;52.466;-1.016;2022-11-20T14:36:56;99183.72;;;10.45;69.72
65718;BME280;52445;52.466;-1.016;2022-11-20T14:39:30;99186.31;;;10.42;69.79
65718;BME280;52445;52.466;-1.016;2022-11-20T14:41:58;99194.97;;;10.41;70.06
65718;BME280;52445;52.466;-1.016;2022-11-20T14:44:32;99192.41;;;10.38;69.83
65718;BME280;52445;52.466;-1.016;2022-11-20T14:47:00;99199.34;;;10.34;70.44
65718;BME280;52445;52.466;-1.016;2022-11-20T14:49:30;99193.38;;;10.31;71.10
65718;BME280;52445;52.466;-1.016;2022-11-20T14:52:00;99190.94;;;10.23;70.40
65718;BME280;52445;52.466;-1.016;2022-11-20T14:54:27;99193.63;;;10.15;70.84
65718;BME280;52445;52.466;-1.016;2022-11-20T14:59:33;99183.50;;;9.99;70.65
65718;BME280;52445;52.466;-1.016;2022-11-20T15:02:05;99184.47;;;9.89;70.74
65718;BME280;52445;52.466;-1.016;2022-11-20T15:04:32;99181.13;;;9.82;71.03
65718;BME280;52445;52.466;-1.016;2022-11-20T15:06:59;99167.47;;;9.74;71.67
65718;BME280;52445;52.466;-1.016;2022-11-20T15:09:26;99175.28;;;9.69;71.04
65718;BME280;52445;52.466;-1.016;2022-11-20T15:14:30;99170.25;;;9.57;71.53
65718;BME280;52445;52.466;-1.016;2022-11-20T15:16:59;99173.75;;;9.52;71.84
65718;BME280;52445;52.466;-1.016;2022-11-20T15:19:26;99169.50;;;9.50;71.58
65718;BME280;52445;52.466;-1.016;2022-11-20T15:21:53;99178.97;;;9.49;71.75
65718;BME280;52445;52.466;-1.016;2022-11-20T15:24:19;99172.09;;;9.48;71.68